Time;durP1;ratioP1;P1;durP2;ratioP2;P2;SDS_P1;SDS_P2;PMS_P1;PMS_P2;Temp;Humidity;BMP_temperature;BMP_pressure;BME280_temperature;BME280_humidity;BME280_pressure;Samples;Min_cycle;Max_cycle;Signal;HPM_P1;HPM_P2
2022/05/21 00:00:22;;;;;;;11.82;5.60;;;11.70;99.90;;;;;;5016572;28;20090;-74
2022/05/21 00:02:49;;;;;;;10.00;5.15;;;11.60;99.90;;;;;;5035123;28;20677;-74
2022/05/21 00:05:16;;;;;;;17.13;6.88;;;11.80;99.90;;;;;;5035168;28;20398;-74
2022/05/21 00:07:43;;;;;;;12.27;5.80;;;11.80;99.90;;;;;;5017348;28;20033;-74
2022/05/21 00:10:09;;;;;;;10.98;5.65;;;;;;;;;;5034303;28;20188;-74
2022/05/21 00:12:35;;;;;;;14.65;7.05;;;;;;;;;;5034878;28;20082;-74
2022/05/21 00:15:02;;;;;;;15.13;7.78;;;;;;;;;;5034915;28;20457;-74
2022/05/21 00:17:28;;;;;;;14.73;8.40;;;;;;;;;;5017024;28;20041;-74
2022/05/21 00:19:53;;;;;;;14.32;8.27;;;;;;;;;;5016563;28;20041;-73
2022/05/21 00:22:19;;;;;;;18.48;9.63;;;;;;;;;;5017226;28;20054;-74
2022/05/21 00:24:45;;;;;;;17.42;8.13;;;12.00;99.90;;;;;;5016954;28;20650;-74
2022/05/21 00:27:11;;;;;;;19.98;8.60;;;12.10;99.90;;;;;;5017083;28;20128;-74
2022/05/21 00:29:37;;;;;;;23.73;9.35;;;12.20;99.90;;;;;;5033822;28;20675;-73
2022/05/21 00:32:03;;;;;;;20.98;10.80;;;11.90;99.90;;;;;;5034764;28;20116;-74
2022/05/21 00:34:30;;;;;;;19.02;10.15;;;12.20;99.90;;;;;;5017027;28;20406;-74
2022/05/21 00:36:56;;;;;;;19.77;10.32;;;;;;;;;;5016890;28;20044;-74
2022/05/21 00:39:22;;;;;;;27.33;12.20;;;;;;;;;;4999778;28;20087;-74
2022/05/21 00:41:48;;;;;;;22.73;11.02;;;12.30;99.90;;;;;;5016638;28;20053;-74
2022/05/21 00:44:14;;;;;;;17.95;10.40;;;12.30;99.90;;;;;;5016882;28;20049;-74
2022/05/21 00:46:42;;;;;;;24.27;12.35;;;12.30;99.90;;;;;;5016493;28;20499;-74
2022/05/21 00:49:15;;;;;;;22.55;12.88;;;12.30;99.90;;;;;;5033700;28;20219;-73
2022/05/21 00:51:59;;;;;;;21.88;11.63;;;13.40;99.90;;;;;;5016777;28;20144;-74
2022/05/21 00:54:30;;;;;;;21.02;11.55;;;12.60;99.90;;;;;;5000336;28;20468;-74
2022/05/21 00:57:16;;;;;;;26.75;11.95;;;12.70;99.90;;;;;;5016628;28;20557;-74
2022/05/21 00:59:51;;;;;;;19.90;11.68;;;12.70;99.90;;;;;;5033371;28;20542;-73
2022/05/21 01:02:28;;;;;;;23.77;11.07;;;12.60;99.90;;;;;;5034171;28;20412;-74
2022/05/21 01:04:56;;;;;;;23.77;11.15;;;12.70;99.90;;;;;;5033980;28;20041;-74
2022/05/21 01:07:25;;;;;;;28.88;11.98;;;12.70;99.90;;;;;;5033489;28;20076;-73
2022/05/21 01:09:53;;;;;;;25.65;11.93;;;12.60;99.90;;;;;;5015632;28;20038;-74
2022/05/21 01:12:21;;;;;;;25.45;11.60;;;12.80;99.90;;;;;;5034014;28;20043;-74
2022/05/21 01:14:49;;;;;;;28.65;12.00;;;12.80;99.90;;;;;;5016028;28;20099;-74
2022/05/21 01:17:18;;;;;;;20.65;10.82;;;12.90;99.90;;;;;;5015952;28;20129;-74
2022/05/21 01:20:16;;;;;;;22.67;10.88;;;13.00;99.90;;;;;;5015184;28;20076;-74
2022/05/21 01:22:49;;;;;;;23.60;11.25;;;13.00;99.90;;;;;;4996663;28;20057;-74
2022/05/21 01:25:18;;;;;;;26.50;12.15;;;13.20;99.90;;;;;;5033536;28;20051;-74
2022/05/21 01:27:46;;;;;;;20.63;10.68;;;12.70;99.90;;;;;;4999567;28;20073;-74
2022/05/21 01:30:16;;;;;;;22.92;10.68;;;12.90;99.90;;;;;;5014952;28;20491;-74
2022/05/21 01:32:46;;;;;;;22.58;10.05;;;12.70;99.90;;;;;;5016003;28;20034;-74
2022/05/21 01:35:11;;;;;;;18.48;9.50;;;12.90;99.90;;;;;;5015486;28;20051;-71
2022/05/21 01:37:39;;;;;;;23.85;10.90;;;;;;;;;;4999348;28;20045;-73
2022/05/21 01:40:07;;;;;;;22.92;11.00;;;12.90;99.90;;;;;;5014715;28;20048;-72
2022/05/21 01:42:34;;;;;;;21.25;9.82;;;13.10;99.90;;;;;;5015774;28;20499;-72
2022/05/21 01:45:00;;;;;;;21.40;9.85;;;;;;;;;;5015263;28;20038;-73
2022/05/21 01:47:26;;;;;;;19.95;9.98;;;12.90;99.90;;;;;;5033001;28;20102;-74
2022/05/21 01:49:51;;;;;;;21.15;9.63;;;12.90;99.90;;;;;;5014598;28;20491;-73
2022/05/21 01:52:18;;;;;;;21.75;10.23;;;13.00;99.90;;;;;;5033174;28;20049;-73
2022/05/21 01:54:44;;;;;;;19.77;9.18;;;;;;;;;;5015153;28;20038;-74
2022/05/21 01:57:09;;;;;;;24.48;8.93;;;13.00;99.90;;;;;;5015442;28;20060;-74
2022/05/21 01:59:36;;;;;;;20.42;9.73;;;13.00;99.90;;;;;;5032261;28;20049;-73
2022/05/21 02:02:02;;;;;;;20.55;8.93;;;12.90;99.90;;;;;;5033007;28;20049;-73
2022/05/21 02:04:28;;;;;;;24.15;8.20;;;13.00;99.90;;;;;;5015058;28;20038;-73
2022/05/21 02:06:54;;;;;;;21.85;8.82;;;;;;;;;;5032657;28;20096;-73
2022/05/21 02:09:20;;;;;;;30.15;8.88;;;13.10;99.90;;;;;;5014325;28;20128;-73
2022/05/21 02:11:46;;;;;;;24.23;8.85;;;;;;;;;;5015286;28;20049;-73
2022/05/21 02:14:12;;;;;;;23.65;7.40;;;13.10;99.90;;;;;;5014926;28;20046;-73
2022/05/21 02:16:38;;;;;;;31.65;8.27;;;13.10;99.90;;;;;;5014662;28;20041;-73
2022/05/21 02:19:06;;;;;;;25.95;7.95;;;13.10;99.90;;;;;;5013525;28;20137;-73
2022/05/21 02:21:33;;;;;;;24.20;7.00;;;13.00;99.90;;;;;;5014708;28;20106;-73
2022/05/21 02:23:59;;;;;;;17.33;6.95;;;13.10;99.90;;;;;;5032296;28;20049;-73
2022/05/21 02:26:25;;;;;;;16.58;6.65;;;13.20;99.90;;;;;;5014626;28;20037;-73
2022/05/21 02:28:51;;;;;;;27.08;6.32;;;;;;;;;;5014431;28;20063;-73
2022/05/21 02:31:17;;;;;;;26.38;7.05;;;13.10;99.90;;;;;;5014418;28;20446;-73
2022/05/21 02:33:44;;;;;;;26.48;7.15;;;;;;;;;;5014565;28;20037;-73
2022/05/21 02:36:10;;;;;;;22.40;6.43;;;13.20;99.90;;;;;;5014657;28;20087;-73
2022/05/21 02:41:21;;;;;;;30.38;6.25;;;;;;;;;;5014123;28;20495;-73
2022/05/21 02:43:47;;;;;;;15.65;5.43;;;;;;;;;;5014421;28;20179;-73
2022/05/21 02:46:14;;;;;;;21.02;6.13;;;13.00;99.90;;;;;;5014349;28;20053;-73
2022/05/21 02:48:40;;;;;;;21.80;5.85;;;13.10;99.90;;;;;;5014442;28;20044;-73
2022/05/21 02:51:08;;;;;;;19.33;4.68;;;13.10;99.90;;;;;;5031209;28;20049;-73
2022/05/21 02:53:34;;;;;;;28.00;5.53;;;13.20;99.90;;;;;;5014280;28;20107;-73
2022/05/21 02:56:08;;;;;;;30.17;5.93;;;13.20;99.90;;;;;;5014229;28;20042;-74
2022/05/21 02:58:34;;;;;;;16.58;5.35;;;13.10;99.90;;;;;;5032140;28;20396;-73
2022/05/21 03:01:00;;;;;;;17.90;5.88;;;;;;;;;;5013342;28;20048;-73
2022/05/21 03:03:26;;;;;;;20.42;5.70;;;;;;;;;;5031743;28;20037;-73
2022/05/21 03:05:52;;;;;;;20.42;6.07;;;13.20;99.90;;;;;;5014297;28;20060;-73
2022/05/21 03:11:02;;;;;;;24.23;6.20;;;13.40;99.90;;;;;;5013253;28;20131;-73
2022/05/21 03:13:29;;;;;;;20.58;4.82;;;13.20;99.90;;;;;;5014066;28;20512;-73
2022/05/21 03:15:56;;;;;;;20.02;4.78;;;13.40;99.90;;;;;;5031581;28;20045;-73
2022/05/21 03:18:21;;;;;;;25.45;5.00;;;13.30;99.90;;;;;;5014119;28;20095;-73
2022/05/21 03:20:47;;;;;;;21.27;5.47;;;;;;;;;;5013088;28;20077;-73
2022/05/21 03:23:13;;;;;;;17.88;4.85;;;;;;;;;;5031771;28;20063;-74
2022/05/21 03:25:40;;;;;;;22.77;5.25;;;;;;;;;;5031570;28;20052;-74
2022/05/21 03:28:06;;;;;;;24.50;4.35;;;13.50;99.90;;;;;;5031597;28;20052;-74
2022/05/21 03:30:32;;;;;;;24.20;4.75;;;13.50;99.90;;;;;;5013423;28;20087;-74
2022/05/21 03:32:58;;;;;;;15.40;4.28;;;13.50;99.90;;;;;;5017749;28;20496;-74
2022/05/21 03:35:24;;;;;;;16.92;4.65;;;13.40;99.90;;;;;;5018149;28;20046;-73
2022/05/21 03:37:51;;;;;;;12.02;4.18;;;13.10;99.90;;;;;;5035608;28;20464;-73
2022/05/21 03:40:22;;;;;;;14.73;4.80;;;13.40;99.90;;;;;;5017093;28;20384;-74
2022/05/21 03:42:47;;;;;;;19.33;5.18;;;13.60;99.90;;;;;;5035526;28;20065;-74
2022/05/21 03:45:13;;;;;;;17.02;4.55;;;;;;;;;;5035261;28;20072;-74
2022/05/21 03:47:41;;;;;;;17.45;3.80;;;13.40;99.90;;;;;;5017325;28;20499;-74
2022/05/21 03:50:12;;;;;;;19.60;5.32;;;13.60;99.90;;;;;;5034561;28;20562;-74
2022/05/21 03:52:37;;;;;;;20.95;4.00;;;13.60;99.90;;;;;;5017616;28;20045;-73
2022/05/21 03:55:03;;;;;;;15.63;3.97;;;13.40;99.90;;;;;;5017798;28;20133;-73
2022/05/21 03:57:29;;;;;;;17.85;4.05;;;;;;;;;;5017250;28;20052;-73
2022/05/21 03:59:57;;;;;;;15.95;5.38;;;;;;;;;;5034390;28;20041;-73
2022/05/21 04:02:23;;;;;;;13.88;3.38;;;13.40;99.90;;;;;;5035304;28;20081;-73
2022/05/21 04:04:49;;;;;;;13.27;3.92;;;13.50;99.90;;;;;;5017545;28;20124;-73
2022/05/21 04:07:15;;;;;;;13.93;3.70;;;13.50;99.90;;;;;;5001116;28;20042;-74
2022/05/21 04:09:40;;;;;;;15.15;4.10;;;13.30;99.90;;;;;;5016542;28;20048;-73
2022/05/21 04:12:07;;;;;;;15.25;3.08;;;;;;;;;;5017384;28;20049;-73
2022/05/21 04:14:32;;;;;;;15.60;3.97;;;13.50;99.90;;;;;;5034836;28;20045;-73
2022/05/21 04:17:00;;;;;;;18.15;4.15;;;13.40;99.90;;;;;;5034897;28;20115;-73
2022/05/21 04:19:27;;;;;;;18.58;4.22;;;13.40;99.90;;;;;;5000019;28;20041;-73
2022/05/21 04:21:52;;;;;;;19.17;3.65;;;13.30;99.90;;;;;;5000642;28;20051;-74
2022/05/21 04:24:19;;;;;;;14.10;3.33;;;;;;;;;;5000716;28;20128;-74
2022/05/21 04:26:45;;;;;;;13.38;2.97;;;13.40;99.90;;;;;;5016775;28;20041;-74
2022/05/21 04:29:14;;;;;;;12.20;3.50;;;13.20;99.90;;;;;;5016436;28;20081;-73
2022/05/21 04:31:40;;;;;;;11.35;2.90;;;;;;;;;;5016862;28;20081;-74
2022/05/21 04:34:06;;;;;;;14.48;3.03;;;13.50;99.90;;;;;;5034623;28;20095;-74
2022/05/21 04:36:32;;;;;;;24.95;4.55;;;13.40;99.90;;;;;;5016967;28;20484;-74
2022/05/21 04:38:58;;;;;;;16.65;3.10;;;;;;;;;;5016344;28;20045;-73
2022/05/21 04:41:25;;;;;;;17.60;4.00;;;13.30;99.90;;;;;;5016561;28;20388;-73
2022/05/21 04:43:52;;;;;;;14.13;3.33;;;13.30;99.90;;;;;;5015661;28;20510;-74
2022/05/21 04:46:18;;;;;;;13.52;3.35;;;13.60;99.90;;;;;;5034309;28;20566;-74
2022/05/21 04:48:45;;;;;;;11.77;3.50;;;13.60;99.90;;;;;;5016419;28;20034;-74
2022/05/21 04:51:12;;;;;;;17.60;3.38;;;13.70;99.90;;;;;;5015420;28;20041;-73
2022/05/21 04:53:38;;;;;;;11.02;3.60;;;13.50;99.90;;;;;;5000082;28;20052;-74
2022/05/21 04:56:04;;;;;;;14.02;3.08;;;;;;;;;;4999940;28;20037;-74
2022/05/21 04:58:30;;;;;;;15.77;3.70;;;13.80;99.90;;;;;;5016567;28;20044;-73
2022/05/21 05:00:55;;;;;;;15.82;4.05;;;13.60;99.90;;;;;;5032118;28;20407;-74
2022/05/21 05:03:21;;;;;;;13.75;3.58;;;13.60;99.90;;;;;;5033902;28;20073;-74
2022/05/21 05:05:47;;;;;;;11.82;3.92;;;13.70;99.90;;;;;;5033722;28;20055;-74
2022/05/21 05:08:15;;;;;;;15.50;2.88;;;13.50;99.90;;;;;;5016371;28;20060;-73
2022/05/21 05:10:45;;;;;;;12.90;3.42;;;13.60;99.90;;;;;;4999256;28;20030;-74
2022/05/21 05:13:10;;;;;;;29.08;5.28;;;13.50;99.90;;;;;;5033834;28;20034;-74
2022/05/21 05:15:36;;;;;;;18.15;3.20;;;13.60;99.90;;;;;;5033674;28;20060;-74
2022/05/21 05:18:09;;;;;;;19.52;3.70;;;13.70;99.90;;;;;;4999745;28;20042;-74
2022/05/21 05:20:36;;;;;;;16.05;3.67;;;13.60;99.90;;;;;;5015605;28;20085;-74
2022/05/21 05:23:02;;;;;;;15.10;2.88;;;;;;;;;;5033813;28;20103;-74
2022/05/21 05:25:28;;;;;;;13.13;3.55;;;13.70;99.90;;;;;;5033503;28;20060;-74
2022/05/21 05:27:54;;;;;;;11.10;2.75;;;;;;;;;;5033547;28;20033;-73
2022/05/21 05:30:21;;;;;;;15.00;2.50;;;13.80;99.90;;;;;;5015084;28;20037;-74
2022/05/21 05:32:46;;;;;;;15.00;5.38;;;13.70;99.90;;;;;;5015923;28;20381;-74
2022/05/21 05:35:12;;;;;;;15.48;3.70;;;13.70;99.90;;;;;;5015948;28;20040;-74
2022/05/21 05:37:39;;;;;;;11.45;4.10;;;13.80;99.90;;;;;;5015515;28;20039;-74
2022/05/21 05:40:10;;;;;;;15.55;3.33;;;13.80;99.90;;;;;;5014710;28;20388;-74
2022/05/21 05:42:37;;;;;;;12.27;3.20;;;13.70;99.90;;;;;;4999246;28;20037;-74
2022/05/21 05:45:05;;;;;;;18.02;3.97;;;13.90;99.90;;;;;;5033040;28;20049;-74
2022/05/21 05:47:31;;;;;;;21.75;3.50;;;13.80;99.90;;;;;;5034220;28;20148;-74
2022/05/21 05:49:57;;;;;;;17.05;4.00;;;;;;;;;;5032459;28;20048;-74
2022/05/21 05:52:24;;;;;;;13.68;3.65;;;;;;;;;;5015345;28;20045;-75
2022/05/21 05:54:49;;;;;;;21.23;3.33;;;14.20;99.90;;;;;;5015281;28;20052;-74
2022/05/21 05:57:16;;;;;;;15.00;3.80;;;;;;;;;;4998859;28;20483;-74
2022/05/21 05:59:48;;;;;;;17.80;3.72;;;;;;;;;;5014277;28;20049;-74
2022/05/21 06:05:00;;;;;;;13.30;3.58;;;;;;;;;;5015020;28;20119;-74
2022/05/21 06:07:25;;;;;;;16.85;4.13;;;14.20;99.90;;;;;;5015254;28;20038;-74
2022/05/21 06:09:51;;;;;;;13.52;3.85;;;14.30;99.90;;;;;;4997783;28;20041;-74
2022/05/21 06:12:17;;;;;;;12.50;3.78;;;;;;;;;;5015035;28;20402;-74
2022/05/21 06:14:45;;;;;;;19.02;3.28;;;;;;;;;;5014988;28;20551;-74
2022/05/21 06:17:15;;;;;;;12.88;3.00;;;14.30;99.90;;;;;;5032842;28;20491;-74
2022/05/21 06:19:41;;;;;;;14.35;2.95;;;14.30;99.90;;;;;;5032037;28;20049;-74
2022/05/21 06:22:07;;;;;;;11.57;3.00;;;;;;;;;;5014989;28;20042;-74
2022/05/21 06:24:36;;;;;;;13.02;2.65;;;14.40;99.90;;;;;;5014672;28;20682;-74
2022/05/21 06:27:06;;;;;;;33.35;7.18;;;14.40;99.90;;;;;;5014796;28;20064;-74
2022/05/21 06:29:32;;;;;;;15.02;3.20;;;;;;;;;;5031981;28;20049;-75
2022/05/21 06:31:57;;;;;;;10.85;2.92;;;14.50;99.90;;;;;;5015083;28;20082;-73
2022/05/21 06:34:24;;;;;;;8.43;2.75;;;;;;;;;;5014581;28;20049;-74
2022/05/21 06:36:49;;;;;;;16.83;3.17;;;14.40;99.90;;;;;;5014590;28;20534;-73
2022/05/21 06:39:15;;;;;;;10.18;3.42;;;14.50;99.90;;;;;;5031670;28;20066;-74
2022/05/21 06:41:41;;;;;;;14.98;3.35;;;;;;;;;;5014489;28;20087;-74
2022/05/21 06:44:09;;;;;;;16.92;3.63;;;14.50;99.90;;;;;;5015221;28;20128;-74
2022/05/21 06:46:35;;;;;;;14.48;3.67;;;14.70;99.90;;;;;;4998229;28;20040;-74
2022/05/21 06:49:00;;;;;;;12.93;2.83;;;14.60;99.90;;;;;;5014185;28;20411;-73
2022/05/21 06:51:26;;;;;;;10.10;2.60;;;;;;;;;;5032001;28;20059;-73
2022/05/21 06:53:52;;;;;;;16.05;2.75;;;;;;;;;;5032410;28;20048;-74
2022/05/21 06:56:18;;;;;;;12.32;2.30;;;14.80;99.90;;;;;;5031860;28;20044;-73
2022/05/21 06:58:45;;;;;;;13.02;3.70;;;14.80;99.90;;;;;;5014315;28;20041;-73
2022/05/21 07:01:10;;;;;;;29.52;4.65;;;15.00;99.90;;;;;;5031315;28;20037;-73
2022/05/21 07:03:37;;;;;;;9.15;2.63;;;14.90;99.90;;;;;;5014168;28;20416;-74
2022/05/21 07:08:50;;;;;;;15.23;3.03;;;15.10;99.90;;;;;;5032066;28;20045;-73
2022/05/21 07:11:16;;;;;;;15.95;3.10;;;;;;;;;;5031356;28;20579;-74
2022/05/21 07:13:43;;;;;;;10.88;2.38;;;;;;;;;;5031902;28;20117;-74
2022/05/21 07:16:09;;;;;;;15.63;2.85;;;15.30;99.90;;;;;;4997626;28;20124;-74
2022/05/21 07:18:35;;;;;;;7.75;2.83;;;15.50;99.90;;;;;;4997797;28;20580;-74
2022/05/21 07:21:00;;;;;;;14.23;2.90;;;15.60;99.90;;;;;;5030862;28;20403;-74
2022/05/21 07:23:27;;;;;;;14.00;2.47;;;15.70;99.90;;;;;;5031965;28;20076;-74
2022/05/21 07:25:53;;;;;;;19.20;3.65;;;15.70;99.90;;;;;;5031647;28;20046;-74
2022/05/21 07:28:19;;;;;;;8.13;2.55;;;15.70;99.90;;;;;;5031906;28;20040;-74
2022/05/21 07:30:45;;;;;;;15.27;3.08;;;15.50;99.90;;;;;;5030983;28;20395;-74
2022/05/21 07:33:17;;;;;;;14.30;3.55;;;15.40;99.90;;;;;;5031571;28;20108;-74
2022/05/21 07:35:44;;;;;;;13.43;2.80;;;15.40;99.90;;;;;;5013834;28;20045;-74
2022/05/21 07:38:13;;;;;;;14.43;3.00;;;15.60;99.90;;;;;;5031760;28;20048;-74
2022/05/21 07:40:41;;;;;;;17.35;4.45;;;15.90;99.90;;;;;;5030864;28;20041;-74
2022/05/21 07:43:13;;;;;;;14.93;3.05;;;15.70;99.90;;;;;;5013100;28;20040;-73
2022/05/21 07:45:41;;;;;;;11.57;2.90;;;;;;;;;;5013081;28;20125;-73
2022/05/21 07:48:09;;;;;;;11.25;2.92;;;15.60;99.90;;;;;;4994509;28;20037;-73
2022/05/21 07:50:36;;;;;;;14.30;3.05;;;;;;;;;;5012782;28;20030;-73
2022/05/21 07:53:02;;;;;;;12.05;3.40;;;15.40;99.90;;;;;;5013496;28;20561;-74
2022/05/21 07:55:28;;;;;;;17.27;3.22;;;;;;;;;;5013561;28;20049;-74
2022/05/21 07:57:54;;;;;;;15.10;3.50;;;;;;;;;;5013134;28;20044;-74
2022/05/21 08:00:20;;;;;;;18.45;4.03;;;15.60;99.90;;;;;;5030244;28;20054;-74
2022/05/21 08:02:46;;;;;;;14.30;3.30;;;15.40;99.90;;;;;;5013117;28;20041;-74
2022/05/21 08:05:12;;;;;;;13.48;3.35;;;;;;;;;;5013080;28;20113;-74
2022/05/21 08:07:38;;;;;;;13.27;3.05;;;15.60;99.90;;;;;;5012607;28;20462;-74
2022/05/21 08:10:05;;;;;;;12.68;2.88;;;15.80;99.90;;;;;;5012282;28;20413;-74
2022/05/21 08:12:31;;;;;;;15.32;3.28;;;15.80;99.90;;;;;;5033534;28;20108;-74
2022/05/21 08:14:57;;;;;;;14.52;3.10;;;;;;;;;;5019475;28;20536;-75
2022/05/21 08:17:22;;;;;;;10.65;3.38;;;15.60;99.90;;;;;;5014516;28;20045;-75
2022/05/21 08:19:48;;;;;;;20.58;3.65;;;16.10;99.90;;;;;;5015894;28;20045;-74
2022/05/21 08:27:42;;;;;;;12.60;2.80;;;15.60;99.90;;;;;;5030185;28;20165;-74
2022/05/21 08:30:09;;;;;;;17.58;3.22;;;15.60;99.90;;;;;;5033758;28;20112;-74
2022/05/21 08:32:35;;;;;;;18.85;4.97;;;16.30;99.90;;;;;;5033036;28;20037;-74
2022/05/21 08:35:01;;;;;;;20.48;7.20;;;16.20;99.90;;;;;;5000797;28;20044;-74
2022/05/21 08:37:29;;;;;;;15.40;3.92;;;16.00;99.90;;;;;;5034603;28;20073;-75
2022/05/21 08:39:55;;;;;;;29.42;5.00;;;16.40;99.90;;;;;;5033406;28;20037;-75
2022/05/21 08:42:44;;;;;;;15.50;3.60;;;16.10;99.90;;;;;;5000242;28;20072;-74
2022/05/21 08:45:18;;;;;;;14.52;3.10;;;16.40;99.90;;;;;;5032644;28;20044;-74
2022/05/21 08:47:48;;;;;;;11.80;3.60;;;16.30;99.90;;;;;;5014433;28;20037;-74
2022/05/21 08:50:17;;;;;;;12.32;2.90;;;16.00;99.90;;;;;;5032415;28;20561;-75
2022/05/21 08:53:04;;;;;;;16.63;3.35;;;16.00;99.90;;;;;;4999756;28;20037;-74
2022/05/21 08:55:54;;;;;;;9.43;2.28;;;16.40;99.90;;;;;;5030020;28;20044;-74
2022/05/21 08:58:46;;;;;;;12.25;2.95;;;16.70;99.90;;;;;;4997124;28;20052;-74
2022/05/21 09:01:15;;;;;;;12.77;3.30;;;16.70;99.90;;;;;;5011652;28;20046;-74
2022/05/21 09:03:42;;;;;;;16.13;3.40;;;;;;;;;;4997242;28;20037;-74
2022/05/21 09:06:37;;;;;;;14.18;2.80;;;16.80;99.90;;;;;;5031825;28;20087;-76
2022/05/21 09:09:40;;;;;;;11.63;2.97;;;16.90;99.90;;;;;;5010790;28;20537;-74
2022/05/21 09:12:55;;;;;;;11.27;2.83;;;16.60;99.90;;;;;;5015037;28;20033;-74
2022/05/21 09:18:11;;;;;;;12.85;2.50;;;16.40;99.90;;;;;;5033197;28;20045;-74
2022/05/21 09:20:56;;;;;;;9.25;2.42;;;16.90;99.90;;;;;;5030780;28;20530;-75
2022/05/21 09:23:22;;;;;;;13.93;3.63;;;16.90;99.90;;;;;;5027482;28;20117;-75
2022/05/21 09:26:07;;;;;;;10.60;2.10;;;16.50;99.90;;;;;;5013912;28;20137;-74
2022/05/21 09:28:37;;;;;;;8.93;3.25;;;16.40;99.90;;;;;;5011803;28;20654;-75
2022/05/21 09:31:05;;;;;;;13.45;2.53;;;17.20;99.90;;;;;;5032251;28;20033;-75
2022/05/21 09:33:38;;;;;;;8.98;2.30;;;16.80;99.90;;;;;;5029874;28;20037;-75
2022/05/21 09:36:05;;;;;;;9.63;2.60;;;17.10;99.90;;;;;;5013224;28;20037;-75
2022/05/21 09:38:33;;;;;;;11.90;2.65;;;16.90;99.90;;;;;;5030127;28;20045;-75
2022/05/21 09:41:22;;;;;;;14.95;3.65;;;16.70;99.90;;;;;;5025744;28;20046;-75
2022/05/21 09:47:06;;;;;;;8.13;2.42;;;17.50;99.90;;;;;;5013942;28;20131;-75
2022/05/21 09:49:32;;;;;;;9.25;2.88;;;17.10;99.90;;;;;;5007877;28;20037;-74
2022/05/21 09:52:18;;;;;;;11.75;2.30;;;17.40;99.90;;;;;;5029845;28;20508;-76
2022/05/21 09:54:44;;;;;;;9.32;2.33;;;17.20;99.90;;;;;;5030770;28;21346;-75
2022/05/21 09:57:29;;;;;;;9.23;3.33;;;16.80;99.90;;;;;;5030923;28;20033;-76
2022/05/21 10:00:06;;;;;;;10.10;2.50;;;17.40;99.90;;;;;;5012015;28;20045;-74
2022/05/21 10:02:41;;;;;;;9.25;2.90;;;17.40;99.90;;;;;;5010945;28;20060;-75
2022/05/21 10:05:08;;;;;;;10.90;2.22;;;17.80;99.90;;;;;;5011936;28;20115;-75
2022/05/21 10:13:23;;;;;;;11.15;2.72;;;17.50;99.90;;;;;;5032120;28;20033;-74
2022/05/21 10:15:58;;;;;;;11.73;2.30;;;17.00;99.90;;;;;;5013465;28;20491;-75
2022/05/21 10:18:57;;;;;;;15.48;2.35;;;17.00;99.90;;;;;;5029272;28;20083;-75
2022/05/21 10:21:35;;;;;;;12.43;2.35;;;17.10;99.90;;;;;;5013611;28;20041;-75
2022/05/21 10:24:07;;;;;;;11.23;2.60;;;17.00;99.90;;;;;;4995921;28;20530;-75
2022/05/21 10:26:47;;;;;;;13.23;2.80;;;16.90;99.90;;;;;;4997343;28;20042;-74
2022/05/21 10:29:40;;;;;;;9.73;2.50;;;16.70;99.90;;;;;;5029254;28;20411;-75
2022/05/21 10:32:25;;;;;;;7.25;2.33;;;16.50;99.90;;;;;;5030454;28;20552;-75
2022/05/21 10:35:12;;;;;;;13.55;2.47;;;16.70;99.90;;;;;;5029928;28;20045;-75
2022/05/21 10:38:05;;;;;;;5.72;2.15;;;16.60;99.90;;;;;;5030337;28;20442;-75
2022/05/21 10:40:50;;;;;;;10.60;2.37;;;17.10;99.90;;;;;;5028935;28;20053;-76
2022/05/21 10:43:40;;;;;;;10.80;2.25;;;17.30;99.90;;;;;;5012509;28;20112;-75
2022/05/21 10:46:19;;;;;;;8.30;2.00;;;17.30;99.90;;;;;;5028534;28;20046;-76
2022/05/21 10:49:26;;;;;;;9.05;2.08;;;17.70;99.90;;;;;;5029069;28;20033;-75
2022/05/21 10:52:10;;;;;;;5.45;2.85;;;17.60;99.90;;;;;;5017531;28;20052;-74
2022/05/21 10:54:59;;;;;;;9.43;2.20;;;17.90;99.90;;;;;;5029573;28;20041;-76
2022/05/21 10:57:49;;;;;;;8.73;1.98;;;17.70;99.90;;;;;;5033256;28;20104;-75
2022/05/21 11:00:39;;;;;;;11.43;2.72;;;17.70;99.90;;;;;;5028607;28;20041;-76
2022/05/21 11:03:24;;;;;;;9.88;2.22;;;17.70;99.90;;;;;;5030202;28;20040;-76
2022/05/21 11:06:05;;;;;;;15.98;2.75;;;18.20;99.90;;;;;;5025725;28;20045;-75
2022/05/21 11:08:41;;;;;;;11.23;2.42;;;18.10;99.90;;;;;;5011761;28;20076;-76
2022/05/21 11:11:37;;;;;;;8.88;2.08;;;18.20;99.90;;;;;;5030045;28;20037;-76
2022/05/21 11:14:17;;;;;;;12.27;2.78;;;18.30;99.90;;;;;;4989160;28;20054;-73
2022/05/21 11:16:57;;;;;;;11.93;3.55;;;17.90;99.90;;;;;;5032470;28;20041;-76
2022/05/21 11:19:37;;;;;;;15.68;2.65;;;18.30;99.90;;;;;;5012124;28;20064;-76
2022/05/21 11:22:09;;;;;;;9.00;1.92;;;18.30;99.90;;;;;;5009182;28;20043;-76
2022/05/21 11:24:45;;;;;;;9.50;1.73;;;18.40;99.90;;;;;;5031741;28;20080;-73
2022/05/21 11:27:36;;;;;;;6.70;1.77;;;18.20;99.90;;;;;;5032232;28;20403;-76
2022/05/21 11:30:12;;;;;;;10.60;2.20;;;18.70;99.90;;;;;;4996569;28;20041;-76
2022/05/21 11:38:38;;;;;;;12.02;2.47;;;18.60;99.90;;;;;;5024822;28;20124;-76
2022/05/21 11:46:43;;;;;;;6.90;2.47;;;18.90;99.90;;;;;;5025782;28;20045;-76
2022/05/21 11:49:27;;;;;;;9.57;2.50;;;18.30;99.90;;;;;;5008565;28;20045;-76
2022/05/21 11:51:54;;;;;;;11.27;2.95;;;18.20;99.90;;;;;;5009268;28;20034;-76
2022/05/21 11:54:44;;;;;;;13.02;2.58;;;18.20;99.90;;;;;;5013385;28;20056;-76
2022/05/21 11:57:10;;;;;;;10.85;2.88;;;17.80;99.90;;;;;;5013627;28;20041;-78
2022/05/21 11:59:53;;;;;;;16.33;3.03;;;18.00;99.90;;;;;;5012489;28;20041;-76
2022/05/21 12:02:39;;;;;;;11.43;2.10;;;17.90;99.90;;;;;;5012992;28;20068;-77
2022/05/21 12:05:10;;;;;;;10.45;2.50;;;17.90;99.90;;;;;;5013433;28;20050;-77
2022/05/21 12:07:43;;;;;;;8.18;2.22;;;18.20;99.90;;;;;;5013172;28;20688;-77
2022/05/21 12:10:14;;;;;;;7.00;2.53;;;18.20;99.90;;;;;;5030219;28;20069;-77
2022/05/21 12:13:10;;;;;;;9.27;2.15;;;18.40;99.90;;;;;;5030855;28;20033;-77
2022/05/21 12:15:43;;;;;;;10.27;2.40;;;18.90;99.90;;;;;;5012993;28;20055;-77
2022/05/21 12:18:41;;;;;;;5.30;1.30;;;18.80;99.90;;;;;;5003103;28;20042;-78
2022/05/21 12:21:35;;;;;;;10.00;1.90;;;19.20;99.90;;;;;;5010119;28;20070;-75
2022/05/21 12:24:08;;;;;;;8.75;2.15;;;18.80;99.90;;;;;;4990654;28;20033;-75
2022/05/21 12:26:40;;;;;;;8.43;1.75;;;18.90;99.90;;;;;;5031580;28;20167;-75
2022/05/21 12:31:41;;;;;;;12.85;1.90;;;19.30;99.90;;;;;;5084067;22;20045;-71
2022/05/21 12:34:27;;;;;;;8.70;1.90;;;19.10;99.90;;;;;;5041064;28;20131;-71
2022/05/21 12:37:04;;;;;;;7.53;1.45;;;19.10;99.90;;;;;;5024718;28;20040;-71
2022/05/21 12:39:49;;;;;;;9.13;1.80;;;19.10;99.90;;;;;;5048585;28;20068;-70
2022/05/21 12:42:25;;;;;;;7.60;1.33;;;19.40;99.90;;;;;;5054379;28;20041;-71
2022/05/21 12:44:52;;;;;;;7.03;1.33;;;19.60;99.90;;;;;;5042562;28;20036;-70
2022/05/21 12:47:34;;;;;;;7.03;1.98;;;19.30;99.90;;;;;;5045308;28;20192;-70
2022/05/21 12:50:03;;;;;;;6.72;1.45;;;20.30;99.90;;;;;;5051957;28;20083;-70
2022/05/21 12:52:49;;;;;;;6.05;1.60;;;19.00;99.90;;;;;;5019176;28;20045;-70
2022/05/21 12:55:28;;;;;;;7.60;2.00;;;18.60;99.90;;;;;;5035135;28;20041;-70
2022/05/21 12:58:15;;;;;;;11.55;2.15;;;18.20;99.90;;;;;;5052346;28;20041;-70
2022/05/21 13:00:49;;;;;;;10.27;2.05;;;18.30;99.90;;;;;;5035159;28;20041;-70
2022/05/21 13:03:16;;;;;;;7.72;1.60;;;18.70;99.90;;;;;;5053054;28;20041;-70
2022/05/21 13:05:54;;;;;;;7.05;1.80;;;18.90;99.90;;;;;;5052615;28;20166;-70
2022/05/21 13:08:21;;;;;;;5.03;1.67;;;19.30;99.90;;;;;;5053916;28;20060;-69
2022/05/21 13:11:01;;;;;;;10.95;1.98;;;18.70;99.90;;;;;;5052965;28;20052;-69
2022/05/21 13:13:31;;;;;;;6.75;1.73;;;18.60;99.90;;;;;;5036033;28;20045;-69
2022/05/21 13:15:59;;;;;;;9.13;2.20;;;18.40;99.90;;;;;;5053917;28;20123;-70
2022/05/21 13:18:34;;;;;;;13.68;2.20;;;18.50;99.90;;;;;;5036080;28;20040;-70
2022/05/21 13:21:22;;;;;;;12.93;2.67;;;18.70;99.90;;;;;;5035476;28;20037;-70
2022/05/21 13:24:07;;;;;;;12.90;3.25;;;18.50;99.90;;;;;;5035901;28;20037;-70
2022/05/21 13:26:35;;;;;;;12.40;2.30;;;20.00;99.90;;;;;;5018947;28;20086;-70
2022/05/21 13:29:20;;;;;;;7.57;1.95;;;19.20;99.90;;;;;;5052774;28;20398;-69
2022/05/21 13:31:50;;;;;;;8.25;2.35;;;19.40;99.90;;;;;;5035462;28;20041;-70
2022/05/21 13:34:25;;;;;;;11.23;2.50;;;18.60;99.90;;;;;;5035640;28;20447;-71
2022/05/21 13:36:58;;;;;;;14.40;2.78;;;18.40;99.90;;;;;;5053192;28;20093;-71
2022/05/21 13:39:33;;;;;;;15.90;4.20;;;17.90;99.90;;;;;;5034371;28;20048;-70
2022/05/21 13:42:09;;;;;;;14.10;3.17;;;18.30;99.90;;;;;;5053509;28;20044;-70
2022/05/21 13:44:37;;;;;;;10.05;2.25;;;18.50;99.90;;;;;;5053052;28;20049;-69
2022/05/21 13:47:16;;;;;;;17.23;3.28;;;18.80;99.90;;;;;;5034958;28;20040;-70
2022/05/21 13:49:42;;;;;;;12.13;3.00;;;18.80;99.90;;;;;;5034168;28;20090;-71
2022/05/21 13:52:11;;;;;;;13.93;3.40;;;18.70;99.90;;;;;;5034905;28;20033;-70
2022/05/21 13:54:40;;;;;;;13.63;3.65;;;18.90;99.90;;;;;;5034933;28;20507;-71
2022/05/21 13:57:25;;;;;;;12.50;2.40;;;19.10;99.90;;;;;;5034968;28;20064;-71